Time;durP1;ratioP1;P1;durP2;ratioP2;P2;SDS_P1;SDS_P2;PMS_P1;PMS_P2;Temp;Humidity;BMP_temperature;BMP_pressure;BME280_temperature;BME280_humidity;BME280_pressure;Samples;Min_cycle;Max_cycle;Signal;HPM_P1;HPM_P2
2022/05/28 00:02:05;;;;;;;17.07;3.90;;;;;11.70;101760.00;;;;10460881;28;20223;-77
2022/05/28 00:07:08;;;;;;;15.97;4.00;;;;;11.70;101757.00;;;;10427983;28;20219;-78
2022/05/28 00:12:10;;;;;;;8.67;3.50;;;;;11.60;101753.00;;;;10490322;28;20268;-78
2022/05/28 00:17:12;;;;;;;20.87;6.20;;;;;11.40;101740.00;;;;10517857;28;20196;-78
2022/05/28 00:22:14;;;;;;;12.20;4.43;;;;;11.30;101739.00;;;;10449630;28;20250;-77
2022/05/28 00:27:16;;;;;;;12.70;4.57;;;;;11.10;101742.00;;;;10489859;28;20680;-78
2022/05/28 00:32:18;;;;;;;10.87;4.40;;;;;11.00;101733.00;;;;10468931;28;20193;-78
2022/05/28 00:37:20;;;;;;;10.97;4.17;;;;;11.00;101741.00;;;;10446712;28;20196;-77
2022/05/28 00:42:22;;;;;;;12.03;4.33;;;;;10.90;101736.00;;;;10432924;28;20201;-77
2022/05/28 00:47:24;;;;;;;13.77;4.30;;;;;10.70;101737.00;;;;10496971;28;20239;-78
2022/05/28 00:52:27;;;;;;;13.33;4.17;;;;;10.60;101732.00;;;;10475282;28;20254;-77
2022/05/28 00:57:29;;;;;;;11.63;3.97;;;;;10.40;101734.00;;;;10491973;28;20197;-77
2022/05/28 01:02:55;;;;;;;18.33;4.33;;;;;10.40;101728.00;;;;10486176;28;20217;-77
2022/05/28 01:08:15;;;;;;;15.37;4.30;;;;;10.20;101728.00;;;;10453493;28;20576;-78
2022/05/28 01:13:28;;;;;;;12.47;4.30;;;;;10.20;101733.00;;;;10451115;28;20244;-78
2022/05/28 01:18:37;;;;;;;12.90;4.10;;;;;10.10;101726.00;;;;10496631;28;20222;-78
2022/05/28 01:23:54;;;;;;;14.80;4.17;;;;;10.20;101727.00;;;;10484362;28;20221;-77
2022/05/28 01:29:02;;;;;;;13.13;4.33;;;;;10.20;101724.00;;;;10461034;28;20223;-78
2022/05/28 01:34:07;;;;;;;12.23;5.30;;;;;10.10;101715.00;;;;10490141;28;20193;-78
2022/05/28 01:39:11;;;;;;;11.83;3.73;;;;;10.00;101713.00;;;;10434214;28;20263;-78
2022/05/28 01:44:15;;;;;;;14.70;4.57;;;;;10.00;101716.00;;;;10504184;28;20273;-78
2022/05/28 01:49:19;;;;;;;14.30;4.60;;;;;9.90;101718.00;;;;10464713;28;20228;-77
2022/05/28 01:54:26;;;;;;;15.70;4.70;;;;;9.90;101711.00;;;;10471597;28;20193;-77
2022/05/28 01:59:34;;;;;;;11.47;4.37;;;;;9.90;101712.00;;;;10419286;28;20202;-78
2022/05/28 02:04:37;;;;;;;17.07;4.13;;;;;9.90;101713.00;;;;10454638;28;20209;-78
2022/05/28 02:09:44;;;;;;;14.63;4.23;;;;;10.00;101705.00;;;;10445125;28;20193;-78
2022/05/28 02:15:24;;;;;;;21.13;4.40;;;;;10.20;101703.00;;;;10468255;28;20189;-78
2022/05/28 02:20:44;;;;;;;14.83;4.60;;;;;10.30;101707.00;;;;10455127;28;20220;-78
2022/05/28 02:26:00;;;;;;;10.67;4.50;;;;;10.40;101698.00;;;;10460719;28;20215;-78
2022/05/28 02:31:16;;;;;;;14.33;4.50;;;;;10.40;101708.00;;;;10457747;28;20189;-78
2022/05/28 02:36:18;;;;;;;12.37;4.30;;;;;10.40;101710.00;;;;10452281;28;20185;-78
2022/05/28 02:41:21;;;;;;;13.43;4.70;;;;;10.40;101704.00;;;;10433440;28;20278;-78
2022/05/28 02:46:23;;;;;;;11.07;4.77;;;;;10.30;101708.00;;;;10481103;28;20216;-77
2022/05/28 02:51:25;;;;;;;14.53;4.93;;;;;10.30;101698.00;;;;10429826;28;20748;-77
2022/05/28 02:56:27;;;;;;;11.93;4.37;;;;;10.10;101704.00;;;;10451955;28;20235;-77
2022/05/28 03:01:33;;;;;;;13.67;4.53;;;;;10.10;101696.00;;;;10452671;28;20548;-78
2022/05/28 03:06:36;;;;;;;15.20;4.40;;;;;10.00;101701.00;;;;10495557;28;20204;-78
2022/05/28 03:11:39;;;;;;;12.23;4.60;;;;;9.90;101709.00;;;;10429244;28;20201;-78
2022/05/28 03:16:42;;;;;;;14.80;4.60;;;;;9.80;101702.00;;;;10479579;28;20186;-78
2022/05/28 03:21:44;;;;;;;14.90;4.37;;;;;9.70;101702.00;;;;10470641;28;20194;-77
2022/05/28 03:26:46;;;;;;;17.87;4.77;;;;;9.60;101708.00;;;;10461883;28;20241;-78
2022/05/28 03:31:48;;;;;;;16.13;5.20;;;;;9.60;101706.00;;;;10445120;28;20189;-77
2022/05/28 03:36:50;;;;;;;13.33;4.70;;;;;9.60;101703.00;;;;10473177;28;20193;-78
2022/05/28 03:41:52;;;;;;;15.03;4.53;;;;;9.70;101705.00;;;;10453226;28;20193;-78
2022/05/28 03:46:54;;;;;;;13.33;4.10;;;;;9.70;101708.00;;;;10428808;28;20225;-78
2022/05/28 03:51:56;;;;;;;17.67;5.30;;;;;9.80;101710.00;;;;10474129;28;20246;-77
2022/05/28 03:57:06;;;;;;;14.40;4.87;;;;;10.00;101712.00;;;;10455658;28;20235;-78
2022/05/28 04:02:09;;;;;;;13.93;4.10;;;;;10.00;101719.00;;;;10453487;28;20221;-77
2022/05/28 04:07:12;;;;;;;11.93;4.23;;;;;10.00;101720.00;;;;10472236;28;20209;-78
2022/05/28 04:12:14;;;;;;;15.47;4.87;;;;;10.00;101716.00;;;;10515280;28;20613;-78
2022/05/28 04:17:16;;;;;;;10.37;4.07;;;;;10.10;101713.00;;;;10489011;28;20194;-77
2022/05/28 04:22:18;;;;;;;13.33;4.37;;;;;10.40;101719.00;;;;10414393;28;20194;-78
2022/05/28 04:27:20;;;;;;;14.07;5.00;;;;;10.60;101718.00;;;;10440769;28;20206;-77
2022/05/28 04:32:22;;;;;;;13.60;4.07;;;;;10.80;101720.00;;;;10463811;28;20307;-77
2022/05/28 04:37:24;;;;;;;14.97;3.67;;;;;11.00;101732.00;;;;10478635;28;20204;-78
2022/05/28 04:42:25;;;;;;;11.13;3.77;;;;;11.10;101727.00;;;;10490689;28;20627;-78
2022/05/28 04:47:27;;;;;;;15.07;3.73;;;;;11.30;101742.00;;;;10449389;28;20206;-78
2022/05/28 04:52:29;;;;;;;11.70;3.87;;;;;11.60;101734.00;;;;10490410;28;20593;-78
2022/05/28 04:57:31;;;;;;;11.93;3.80;;;;;12.10;101736.00;;;;10445503;28;20236;-78
2022/05/28 05:02:33;;;;;;;11.80;4.00;;;;;12.30;101735.00;;;;10467230;28;20683;-77
2022/05/28 05:07:35;;;;;;;10.03;3.53;;;;;12.50;101740.00;;;;10438908;28;20210;-77
2022/05/28 05:12:37;;;;;;;16.60;4.57;;;;;12.90;101736.00;;;;10489536;28;20203;-78
2022/05/28 05:17:45;;;;;;;11.10;3.63;;;;;13.40;101737.00;;;;10470159;28;20280;-77
2022/05/28 05:22:47;;;;;;;11.20;3.37;;;;;13.80;101735.00;;;;10430898;28;20954;-78
2022/05/28 05:27:49;;;;;;;11.67;3.33;;;;;14.20;101741.00;;;;10462209;28;20236;-78
2022/05/28 05:32:51;;;;;;;10.87;3.87;;;;;14.60;101744.00;;;;10484444;28;20185;-78
2022/05/28 05:37:53;;;;;;;9.00;3.37;;;;;14.80;101750.00;;;;10474716;28;20173;-79
2022/05/28 05:42:58;;;;;;;13.57;3.73;;;;;15.40;101746.00;;;;10485955;28;20215;-78
2022/05/28 05:48:00;;;;;;;7.87;2.87;;;;;15.90;101748.00;;;;10462673;28;20230;-79
2022/05/28 05:53:02;;;;;;;10.80;3.27;;;;;16.40;101751.00;;;;10477495;28;20323;-79
2022/05/28 05:58:04;;;;;;;7.17;2.40;;;;;16.90;101758.00;;;;10464376;28;20223;-80
2022/05/28 06:03:07;;;;;;;8.40;2.87;;;;;16.70;101752.00;;;;10456725;28;20205;-79
2022/05/28 06:08:09;;;;;;;6.53;2.70;;;;;16.60;101754.00;;;;10445699;28;20239;-79
2022/05/28 06:13:11;;;;;;;17.13;3.40;;;;;16.80;101762.00;;;;10426451;28;20190;-79
2022/05/28 06:18:13;;;;;;;6.00;2.13;;;;;17.10;101761.00;;;;10460142;28;20189;-79
2022/05/28 06:23:17;;;;;;;9.23;2.20;;;;;17.30;101762.00;;;;10490126;28;20220;-80
2022/05/28 06:28:19;;;;;;;11.75;3.13;;;;;17.60;101751.00;;;;10465725;28;20210;-79
2022/05/28 06:33:21;;;;;;;8.73;2.03;;;;;16.60;101762.00;;;;10424769;28;20193;-79
2022/05/28 06:38:23;;;;;;;8.37;2.30;;;;;17.20;101762.00;;;;10478130;28;20185;-80
2022/05/28 06:43:26;;;;;;;8.63;2.63;;;;;17.90;101757.00;;;;10449973;28;20693;-79
2022/05/28 06:48:28;;;;;;;12.15;2.40;;;;;18.10;101755.00;;;;10447037;28;20209;-79
2022/05/28 06:53:38;;;;;;;6.85;2.25;;;;;18.00;101755.00;;;;10448704;28;20198;-80
2022/05/28 06:58:40;;;;;;;13.60;2.53;;;;;18.20;101751.00;;;;10482037;28;20194;-79
2022/05/28 07:03:43;;;;;;;7.20;2.10;;;;;19.00;101750.00;;;;10497722;28;20711;-79
2022/05/28 07:08:45;;;;;;;8.52;2.28;;;;;18.60;101753.00;;;;10435830;28;20214;-80
2022/05/28 07:13:47;;;;;;;7.20;2.53;;;;;18.80;101750.00;;;;10437240;28;20205;-81
2022/05/28 07:18:49;;;;;;;6.40;2.47;;;;;17.90;101764.00;;;;10463637;28;20578;-79
2022/05/28 07:23:51;;;;;;;6.95;1.90;;;;;18.10;101768.00;;;;10485472;28;20325;-79
2022/05/28 07:28:55;;;;;;;8.73;2.30;;;;;18.10;101767.00;;;;10433379;28;20229;-78
2022/05/28 07:33:56;;;;;;;9.13;2.03;;;;;18.70;101765.00;;;;10464486;28;20189;-79
2022/05/28 07:38:58;;;;;;;6.85;2.60;;;;;17.00;101774.00;;;;10491911;28;20563;-78
2022/05/28 07:44:01;;;;;;;7.28;1.95;;;;;17.30;101772.00;;;;10455540;28;20205;-78
2022/05/28 07:49:04;;;;;;;7.55;1.77;;;;;17.30;101774.00;;;;10485923;28;20292;-79
2022/05/28 07:54:07;;;;;;;3.67;1.63;;;;;17.80;101771.00;;;;10425457;28;20210;-79
2022/05/28 07:59:09;;;;;;;7.50;1.80;;;;;16.90;101774.00;;;;10488736;28;20196;-79
2022/05/28 08:04:11;;;;;;;3.47;1.70;;;;;17.10;101759.00;;;;10454544;28;20221;-78
2022/05/28 08:09:16;;;;;;;4.97;1.60;;;;;16.90;101764.00;;;;10460465;28;20221;-79
2022/05/28 08:14:18;;;;;;;3.80;1.33;;;;;16.40;101762.00;;;;10458103;28;20669;-79
2022/05/28 08:19:20;;;;;;;5.37;1.40;;;;;16.60;101754.00;;;;10429568;28;20656;-79
2022/05/28 08:24:22;;;;;;;6.72;1.40;;;;;19.30;101754.00;;;;10453701;28;20194;-79
2022/05/28 08:29:27;;;;;;;6.90;1.48;;;;;19.00;101759.00;;;;10462005;28;20194;-80
2022/05/28 08:34:29;;;;;;;5.75;1.20;;;;;19.50;101756.00;;;;10450653;28;20185;-80
2022/05/28 08:39:31;;;;;;;4.93;1.52;;;;;21.40;101757.00;;;;10450186;28;20644;-79
2022/05/28 08:44:39;;;;;;;4.18;1.48;;;;;23.00;101746.00;;;;10467168;28;20305;-80
2022/05/28 08:49:46;;;;;;;3.13;1.20;;;;;22.50;101747.00;;;;10448468;28;20239;-79
2022/05/28 08:55:11;;;;;;;4.78;1.30;;;;;20.00;101754.00;;;;10465582;28;20270;-80
2022/05/28 09:00:23;;;;;;;7.43;1.50;;;;;19.40;101763.00;;;;10462804;28;20229;-80
2022/05/28 09:05:33;;;;;;;6.13;1.20;;;;;18.40;101753.00;;;;10436895;28;20240;-77
2022/05/28 09:10:46;;;;;;;4.82;1.38;;;;;17.60;101755.00;;;;10440376;28;20717;-77
2022/05/28 09:15:48;;;;;;;4.53;0.93;;;;;20.50;101751.00;;;;10474353;28;20189;-78
2022/05/28 09:20:50;;;;;;;5.38;1.30;;;;;22.20;101753.00;;;;10448896;28;20185;-78
2022/05/28 09:25:59;;;;;;;3.85;1.20;;;;;23.00;101757.00;;;;10455532;28;20206;-78
2022/05/28 09:31:43;;;;;;;3.88;1.10;;;;;21.90;101749.00;;;;10459916;28;20197;-77
2022/05/28 09:37:03;;;;;;;2.20;0.80;;;;;22.70;101747.00;;;;10463088;28;20240;-77
2022/05/28 09:42:18;;;;;;;5.82;1.38;;;;;23.70;101738.00;;;;10441733;28;20197;-77
2022/05/28 09:47:19;;;;;;;3.10;0.70;;;;;23.00;101745.00;;;;10460469;28;20225;-77
2022/05/28 09:52:25;;;;;;;2.40;0.98;;;;;23.20;101739.00;;;;10459749;28;20205;-77
2022/05/28 09:57:29;;;;;;;3.45;0.73;;;;;22.80;101748.00;;;;10463921;28;20186;-78
2022/05/28 10:04:28;;;;;;;2.78;1.08;;;;;22.80;101736.00;;;;10414071;28;20622;-77
2022/05/28 10:08:12;;;;;;;3.45;1.08;;;;;22.50;101726.00;;;;10474966;28;20208;-76
2022/05/28 10:13:18;;;;;;;2.70;1.00;;;;;22.10;101737.00;;;;10441751;28;20229;-77
2022/05/28 10:18:25;;;;;;;4.07;0.88;;;;;22.70;101734.00;;;;10461994;28;20185;-78
2022/05/28 10:23:30;;;;;;;5.15;0.85;;;;;22.80;101733.00;;;;10434579;28;20775;-78
2022/05/28 10:28:44;;;;;;;2.92;0.98;;;;;22.00;101728.00;;;;10472733;28;20244;-78
2022/05/28 10:33:47;;;;;;;3.20;0.80;;;;;23.30;101729.00;;;;10479682;28;20595;-78
2022/05/28 10:38:49;;;;;;;3.05;1.00;;;;;22.70;101725.00;;;;10443876;28;20193;-78
2022/05/28 10:43:51;;;;;;;2.88;0.95;;;;;21.10;101738.00;;;;10459172;28;20564;-78
2022/05/28 10:49:21;;;;;;;4.88;0.90;;;;;22.80;101716.00;;;;10463173;28;20259;-77
2022/05/28 10:54:48;;;;;;;3.35;0.80;;;;;21.70;101731.00;;;;10458840;28;20186;-78
2022/05/28 11:00:02;;;;;;;3.05;0.90;;;;;22.50;101713.00;;;;10447534;28;20212;-78
2022/05/28 11:05:45;;;;;;;1.58;1.00;;;;;23.30;101728.00;;;;10487674;28;20214;-78
2022/05/28 11:11:09;;;;;;;1.58;0.73;;;;;20.20;101728.00;;;;10468717;28;20686;-77
2022/05/28 11:16:29;;;;;;;4.43;0.80;;;;;21.60;101708.00;;;;10463042;28;20182;-78
2022/05/28 11:21:55;;;;;;;4.07;1.05;;;;;23.00;101696.00;;;;10447521;28;20205;-78
2022/05/28 11:27:03;;;;;;;5.47;1.13;;;;;21.40;101723.00;;;;10431995;28;20236;-79
2022/05/28 11:32:19;;;;;;;2.53;1.00;;;;;21.60;101710.00;;;;10455240;28;20722;-79
2022/05/28 11:37:33;;;;;;;4.38;0.80;;;;;22.60;101702.00;;;;10482351;28;20189;-78
2022/05/28 11:42:58;;;;;;;7.40;0.80;;;;;24.00;101705.00;;;;10451193;28;20207;-78
2022/05/28 11:48:07;;;;;;;1.67;0.82;;;;;23.00;101695.00;;;;10447586;28;20206;-78
2022/05/28 11:53:12;;;;;;;3.13;1.27;;;;;24.00;101692.00;;;;10461512;28;20212;-78
2022/05/28 11:58:18;;;;;;;3.78;1.02;;;;;22.10;101693.00;;;;10430666;28;20190;-77
2022/05/28 12:03:24;;;;;;;4.07;1.50;;;;;20.80;101689.00;;;;10440184;28;20312;-78
2022/05/28 12:08:41;;;;;;;3.53;0.80;;;;;19.80;101687.00;;;;10441986;28;20206;-78
2022/05/28 12:13:43;;;;;;;3.10;1.45;;;;;20.10;101674.00;;;;10495775;28;20217;-77
2022/05/28 12:19:01;;;;;;;5.25;1.13;;;;;23.20;101655.00;;;;10459865;28;20189;-78
2022/05/28 12:24:11;;;;;;;3.67;1.30;;;;;23.20;101670.00;;;;10434863;28;20212;-77
2022/05/28 12:35:03;;;;;;;5.30;1.48;;;;;20.00;101677.00;;;;10451959;28;20217;-77
2022/05/28 12:40:27;;;;;;;2.47;0.90;;;;;19.80;101669.00;;;;10463717;28;20587;-77
2022/05/28 12:45:32;;;;;;;2.67;0.80;;;;;21.60;101653.00;;;;10446364;28;20847;-77
2022/05/28 12:50:54;;;;;;;4.93;1.42;;;;;20.00;101666.00;;;;10444077;28;20212;-77
2022/05/28 12:56:06;;;;;;;2.60;0.85;;;;;20.90;101648.00;;;;10459027;28;20193;-78
2022/05/28 13:01:21;;;;;;;4.90;1.08;;;;;21.70;101660.00;;;;10497914;28;20749;-78
2022/05/28 13:06:43;;;;;;;4.22;1.20;;;;;21.50;101659.00;;;;10465374;28;20209;-78
2022/05/28 13:11:54;;;;;;;3.35;1.40;;;;;20.10;101658.00;;;;10463055;28;20208;-78
2022/05/28 13:17:15;;;;;;;3.90;1.48;;;;;21.40;101618.00;;;;10482568;28;20186;-79
2022/05/28 13:22:41;;;;;;;4.22;1.25;;;;;22.30;101626.00;;;;10422099;28;20902;-78
2022/05/28 13:28:08;;;;;;;2.72;1.38;;;;;21.00;101634.00;;;;10468050;28;20245;-78
2022/05/28 13:33:12;;;;;;;7.32;1.98;;;;;21.80;101632.00;;;;10450634;28;20683;-78
2022/05/28 13:38:17;;;;;;;4.32;1.45;;;;;22.40;101634.00;;;;10440415;28;20191;-77
2022/05/28 13:43:23;;;;;;;3.88;1.00;;;;;22.10;101625.00;;;;10425780;28;20564;-78
2022/05/28 13:48:26;;;;;;;5.13;1.27;;;;;22.20;101619.00;;;;10495534;28;20205;-78
2022/05/28 13:53:34;;;;;;;4.90;1.30;;;;;23.20;101612.00;;;;10471439;28;20193;-78
2022/05/28 13:58:40;;;;;;;4.65;0.85;;;;;22.90;101617.00;;;;10478074;28;20213;-78
2022/05/28 14:03:42;;;;;;;3.28;1.80;;;;;22.10;101622.00;;;;10449080;28;20213;-78
2022/05/28 14:08:47;;;;;;;3.30;0.98;;;;;21.30;101617.00;;;;10414258;28;20217;-78
2022/05/28 14:13:52;;;;;;;3.85;1.15;;;;;23.00;101609.00;;;;10441426;28;20218;-78
2022/05/28 14:18:58;;;;;;;5.68;1.42;;;;;21.70;101616.00;;;;10445245;28;20269;-78
2022/05/28 14:24:16;;;;;;;5.03;2.17;;;;;21.00;101617.00;;;;10450173;28;20332;-78
2022/05/28 14:29:24;;;;;;;3.40;1.15;;;;;21.40;101621.00;;;;10460688;28;20205;-78
2022/05/28 14:34:27;;;;;;;3.55;0.98;;;;;24.30;101591.00;;;;10441494;28;20197;-78
2022/05/28 14:39:32;;;;;;;2.75;1.27;;;;;25.70;101612.00;;;;10435819;28;20214;-79
2022/05/28 14:44:37;;;;;;;3.45;1.10;;;;;24.20;101603.00;;;;10436027;28;20271;-79
2022/05/28 14:49:50;;;;;;;1.70;0.70;;;;;27.50;101587.00;;;;10458305;28;20225;-78
2022/05/28 14:54:57;;;;;;;5.90;1.33;;;;;26.70;101591.00;;;;10457212;28;20197;-78
2022/05/28 15:00:04;;;;;;;5.72;1.02;;;;;29.50;101578.00;;;;10441358;28;20197;-78
2022/05/28 15:05:10;;;;;;;2.63;0.90;;;;;30.00;101579.00;;;;10437021;28;20304;-79
2022/05/28 15:10:31;;;;;;;3.05;1.00;;;;;30.10;101587.00;;;;10466985;28;20198;-78
2022/05/28 15:15:33;;;;;;;7.65;1.30;;;;;31.00;101615.00;;;;10442273;28;20265;-77
2022/05/28 15:20:36;;;;;;;3.85;1.10;;;;;31.20;101570.00;;;;10416486;28;20213;-78
2022/05/28 15:25:39;;;;;;;3.17;1.10;;;;;30.00;101583.00;;;;10449607;28;20556;-78
2022/05/28 15:30:41;;;;;;;4.18;1.40;;;;;27.10;101577.00;;;;10458445;28;20197;-77
2022/05/28 15:41:07;;;;;;;7.50;1.33;;;;;21.10;101576.00;;;;10458230;28;20807;-77
2022/05/28 15:46:09;;;;;;;5.20;1.63;;;;;19.70;101591.00;;;;10475058;28;20236;-77
2022/05/28 15:51:13;;;;;;;4.03;1.38;;;;;18.80;101582.00;;;;10441178;28;20636;-77
2022/05/28 15:56:16;;;;;;;3.05;1.10;;;;;18.40;101575.00;;;;10428095;28;20201;-78
2022/05/28 16:01:24;;;;;;;3.25;1.00;;;;;17.50;101579.00;;;;10452502;28;20201;-77
2022/05/28 16:06:28;;;;;;;5.00;1.60;;;;;17.70;101576.00;;;;10436645;28;20226;-77
2022/05/28 16:11:34;;;;;;;4.38;1.05;;;;;17.60;101568.00;;;;10430436;28;20700;-76
2022/05/28 16:16:36;;;;;;;3.30;1.15;;;;;17.30;101572.00;;;;10448150;28;20194;-77
2022/05/28 16:21:38;;;;;;;8.90;1.45;;;;;17.30;101578.00;;;;10447979;28;20189;-77
2022/05/28 16:26:40;;;;;;;4.75;0.82;;;;;17.20;101562.00;;;;10455822;28;20276;-77
2022/05/28 16:31:42;;;;;;;3.22;0.60;;;;;16.90;101574.00;;;;10417078;28;20199;-77
2022/05/28 16:36:44;;;;;;;2.47;0.87;;;;;16.90;101559.00;;;;10427639;28;20198;-77
2022/05/28 16:41:47;;;;;;;7.15;1.30;;;;;17.00;101570.00;;;;10462586;28;20197;-78
2022/05/28 16:46:49;;;;;;;5.37;1.37;;;;;16.90;101554.00;;;;10445881;28;20209;-78
2022/05/28 16:51:51;;;;;;;6.15;1.40;;;;;16.80;101558.00;;;;10446391;28;20209;-78
2022/05/28 16:56:53;;;;;;;5.07;1.10;;;;;16.50;101556.00;;;;10461986;28;20189;-78
2022/05/28 17:01:54;;;;;;;6.17;1.50;;;;;16.60;101552.00;;;;10460833;28;20228;-77
2022/05/28 17:06:59;;;;;;;5.27;1.60;;;;;16.60;101542.00;;;;10461938;28;20217;-78
2022/05/28 17:12:01;;;;;;;8.13;1.50;;;;;16.90;101538.00;;;;10477175;28;20197;-77
2022/05/28 17:17:03;;;;;;;3.93;1.30;;;;;17.40;101536.00;;;;10423760;28;20205;-77
2022/05/28 17:22:05;;;;;;;4.40;1.60;;;;;17.70;101544.00;;;;10460202;28;20907;-77
2022/05/28 17:27:07;;;;;;;6.38;1.48;;;;;17.70;101541.00;;;;10461292;28;20330;-77
2022/05/28 17:32:12;;;;;;;8.18;2.38;;;;;17.80;101541.00;;;;10466214;28;20200;-77
2022/05/28 17:37:26;;;;;;;3.53;1.33;;;;;17.60;101548.00;;;;10461695;28;20247;-77
2022/05/28 17:42:28;;;;;;;8.05;3.25;;;;;17.90;101543.00;;;;10444759;28;20201;-77
2022/05/28 17:47:30;;;;;;;6.28;1.60;;;;;18.00;101547.00;;;;10450700;28;20232;-77
2022/05/28 17:52:32;;;;;;;6.13;1.50;;;;;18.20;101537.00;;;;10430204;28;20241;-77
2022/05/28 17:57:34;;;;;;;4.47;1.75;;;;;17.90;101533.00;;;;10422265;28;20214;-77
2022/05/28 18:02:36;;;;;;;8.68;1.83;;;;;17.30;101528.00;;;;10417252;28;20221;-78
2022/05/28 18:07:38;;;;;;;5.28;1.98;;;;;16.80;101544.00;;;;10443771;28;20274;-77
2022/05/28 18:12:40;;;;;;;4.50;1.23;;;;;16.40;101540.00;;;;10436335;28;20680;-78
2022/05/28 18:17:44;;;;;;;3.03;1.10;;;;;16.10;101530.00;;;;10402554;28;20202;-77
2022/05/28 18:22:48;;;;;;;7.13;1.80;;;;;15.90;101539.00;;;;10418977;28;20190;-77
2022/05/28 18:27:50;;;;;;;4.53;2.03;;;;;15.90;101529.00;;;;10446953;28;20213;-78
2022/05/28 18:32:54;;;;;;;6.47;1.57;;;;;16.00;101528.00;;;;10469775;28;20209;-77
2022/05/28 18:37:59;;;;;;;5.17;1.87;;;;;16.00;101530.00;;;;10423987;28;20198;-78
2022/05/28 18:43:02;;;;;;;5.43;1.30;;;;;16.10;101522.00;;;;10435572;28;20200;-78
2022/05/28 18:48:05;;;;;;;7.30;2.37;;;;;16.00;101509.00;;;;10424855;28;20553;-78
2022/05/28 18:58:29;;;;;;;6.40;1.77;;;;;15.90;101521.00;;;;10461638;28;20193;-78
2022/05/28 19:03:33;;;;;;;4.83;1.50;;;;;15.50;101524.00;;;;10426650;28;20720;-78
2022/05/28 19:08:40;;;;;;;6.90;1.57;;;;;14.90;101514.00;;;;10445442;28;20225;-78
2022/05/28 19:13:49;;;;;;;8.07;1.90;;;;;14.70;101507.00;;;;10444681;28;20232;-77
2022/05/28 19:18:51;;;;;;;7.60;1.70;;;;;14.40;101520.00;;;;10419967;28;20256;-77
2022/05/28 19:23:53;;;;;;;6.60;1.70;;;;;14.10;101515.00;;;;10441792;28;20255;-77
2022/05/28 19:28:57;;;;;;;6.93;1.60;;;;;13.70;101514.00;;;;10442181;28;20229;-77
2022/05/28 19:34:00;;;;;;;9.03;1.60;;;;;13.40;101508.00;;;;10449050;28;20197;-77
2022/05/28 19:39:02;;;;;;;9.70;1.63;;;;;13.10;101515.00;;;;10441089;28;20259;-78
2022/05/28 19:44:04;;;;;;;8.40;1.90;;;;;12.90;101517.00;;;;10466715;28;20284;-77
2022/05/28 19:49:11;;;;;;;6.50;1.87;;;;;12.70;101521.00;;;;10432794;28;20225;-77
2022/05/28 19:54:13;;;;;;;6.23;1.40;;;;;12.50;101517.00;;;;10428114;28;20248;-77
2022/05/28 19:59:15;;;;;;;5.73;1.40;;;;;12.30;101521.00;;;;10409971;28;20190;-77
2022/05/28 20:04:18;;;;;;;4.40;1.10;;;;;12.10;101525.00;;;;10429439;28;20249;-77
2022/05/28 20:09:20;;;;;;;4.80;1.37;;;;;12.00;101515.00;;;;10445962;28;20371;-77
2022/05/28 20:14:21;;;;;;;4.20;1.70;;;;;11.90;101515.00;;;;10450287;28;20209;-77
2022/05/28 20:19:23;;;;;;;3.93;1.10;;;;;11.70;101522.00;;;;10465173;28;20568;-77
2022/05/28 20:24:26;;;;;;;2.73;1.40;;;;;11.50;101520.00;;;;10463270;28;20201;-77
2022/05/28 20:29:29;;;;;;;4.93;2.60;;;;;11.30;101525.00;;;;10464961;28;20226;-77
2022/05/28 20:34:34;;;;;;;3.07;1.23;;;;;11.10;101518.00;;;;10455900;28;20632;-77
2022/05/28 20:39:36;;;;;;;5.33;1.83;;;;;10.90;101519.00;;;;10447953;28;20276;-77
2022/05/28 20:44:37;;;;;;;6.57;1.53;;;;;10.80;101520.00;;;;10449319;28;20615;-78
2022/05/28 20:49:42;;;;;;;5.90;1.83;;;;;10.60;101505.00;;;;10444263;28;20313;-77
2022/05/28 20:54:44;;;;;;;3.17;1.33;;;;;10.40;101504.00;;;;10421743;28;20206;-77
2022/05/28 20:59:46;;;;;;;3.10;1.23;;;;;10.30;101503.00;;;;10409987;28;20206;-76
2022/05/28 21:04:48;;;;;;;3.17;1.27;;;;;10.10;101508.00;;;;10461608;28;20213;-77
2022/05/28 21:09:50;;;;;;;6.57;1.33;;;;;10.00;101496.00;;;;10444907;28;20626;-77
2022/05/28 21:14:52;;;;;;;5.50;1.67;;;;;9.90;101497.00;;;;10428274;28;20300;-76
2022/05/28 21:19:54;;;;;;;8.10;1.67;;;;;9.80;101493.00;;;;10428452;28;20201;-77
2022/05/28 21:24:56;;;;;;;5.73;1.60;;;;;9.70;101485.00;;;;10428764;28;20209;-77
2022/05/28 21:29:58;;;;;;;8.07;1.53;;;;;9.60;101484.00;;;;10422051;28;20214;-77
2022/05/28 21:35:22;;;;;;;2.67;1.63;;;;;9.50;101494.00;;;;10444506;28;20220;-77
2022/05/28 21:40:26;;;;;;;3.77;1.67;;;;;9.50;101493.00;;;;10425969;28;20200;-76
2022/05/28 21:45:30;;;;;;;5.60;1.90;;;;;9.40;101482.00;;;;10480453;28;20190;-77
2022/05/28 21:50:33;;;;;;;10.80;2.10;;;;;9.30;101479.00;;;;10448278;28;20275;-78
2022/05/28 21:55:35;;;;;;;4.90;2.13;;;;;9.20;101465.00;;;;10427756;28;20194;-77
2022/05/28 22:00:45;;;;;;;5.33;1.87;;;;;9.20;101465.00;;;;10435842;28;20232;-78
2022/05/28 22:05:47;;;;;;;8.67;2.13;;;;;9.10;101465.00;;;;10423123;28;20276;-77
2022/05/28 22:10:50;;;;;;;6.63;2.27;;;;;9.00;101459.00;;;;10413832;28;20214;-77
2022/05/28 22:15:52;;;;;;;8.40;2.03;;;;;8.80;101460.00;;;;10464899;28;20228;-78
2022/05/28 22:20:54;;;;;;;6.13;2.17;;;;;8.70;101445.00;;;;10464572;28;20189;-78
2022/05/28 22:26:01;;;;;;;6.10;2.23;;;;;8.60;101438.00;;;;10448487;28;20205;-77
2022/05/28 22:31:03;;;;;;;6.70;2.23;;;;;8.50;101439.00;;;;10448836;28;20742;-78
2022/05/28 22:36:06;;;;;;;7.70;2.20;;;;;8.40;101426.00;;;;10444232;28;20677;-78
2022/05/28 22:41:07;;;;;;;6.93;2.20;;;;;8.20;101431.00;;;;10440869;28;20206;-78
2022/05/28 22:46:12;;;;;;;8.63;2.40;;;;;8.20;101428.00;;;;10423428;28;20256;-78
2022/05/28 22:51:14;;;;;;;4.33;2.00;;;;;8.10;101419.00;;;;10444321;28;20693;-78
2022/05/28 22:56:17;;;;;;;10.10;2.40;;;;;8.10;101424.00;;;;10430040;28;20259;-78
2022/05/28 23:01:21;;;;;;;6.77;2.27;;;;;8.00;101419.00;;;;10430891;28;20201;-78
2022/05/28 23:06:26;;;;;;;10.70;2.33;;;;;8.00;101415.00;;;;10480506;28;20653;-78
2022/05/28 23:11:28;;;;;;;4.63;2.20;;;;;8.00;101410.00;;;;10405959;28;20605;-78
2022/05/28 23:16:32;;;;;;;9.63;2.47;;;;;8.00;101405.00;;;;10474729;28;20209;-78
2022/05/28 23:21:37;;;;;;;9.17;2.70;;;;;8.00;101401.00;;;;10446346;28;20690;-77
2022/05/28 23:26:39;;;;;;;9.93;2.33;;;;;8.00;101395.00;;;;10430428;28;20648;-78
2022/05/28 23:31:44;;;;;;;5.23;2.73;;;;;8.00;101393.00;;;;10465725;28;20206;-78
2022/05/28 23:36:46;;;;;;;5.73;2.50;;;;;8.00;101381.00;;;;10417568;28;20193;-78
2022/05/28 23:41:47;;;;;;;6.70;2.60;;;;;8.00;101384.00;;;;10446834;28;20198;-78
2022/05/28 23:46:55;;;;;;;8.07;2.20;;;;;8.00;101380.00;;;;10480081;28;20571;-78
2022/05/28 23:51:58;;;;;;;6.43;2.10;;;;;8.00;101381.00;;;;10425012;28;20201;-79
2022/05/28 23:57:02;;;;;;;5.50;2.20;;;;;7.90;101366.00;;;;10418623;28;20257;-78
